createdAt,value
2023-04-09T00:00:01.963Z,102222.96
2023-04-09T00:02:29.887Z,102226.23
2023-04-09T00:04:57.791Z,102221.00
2023-04-09T00:07:25.673Z,102216.87
2023-04-09T00:09:53.550Z,102216.87
2023-04-09T00:12:21.658Z,102196.60
2023-04-09T00:14:49.589Z,102202.30
2023-04-09T00:17:17.671Z,102196.96
2023-04-09T00:19:45.565Z,102197.32
2023-04-09T00:22:13.454Z,102198.93
2023-04-09T00:24:41.849Z,102198.57
2023-04-09T00:27:09.725Z,102194.48
2023-04-09T00:29:38.032Z,102194.48
2023-04-09T00:32:06.125Z,102188.40
2023-04-09T00:34:33.977Z,102192.91
2023-04-09T00:37:02.511Z,102194.58
2023-04-09T00:39:30.376Z,102185.68
2023-04-09T00:42:00.010Z,102183.72
2023-04-09T00:44:27.905Z,102187.45
2023-04-09T00:46:56.714Z,102191.14
2023-04-09T00:49:26.188Z,102191.21
2023-04-09T00:51:54.841Z,102196.48
2023-04-09T00:54:23.130Z,102188.73
2023-04-09T00:56:51.222Z,102191.14
2023-04-09T00:59:19.486Z,102204.71
2023-04-09T01:01:47.417Z,102196.21
2023-04-09T01:04:15.471Z,102188.92
2023-04-09T01:06:57.088Z,102184.08
2023-04-09T01:09:43.882Z,102192.65
2023-04-09T01:12:52.968Z,102183.79
2023-04-09T01:15:28.246Z,102180.94
2023-04-09T01:18:05.922Z,102184.21
2023-04-09T01:20:39.822Z,102182.64
2023-04-09T01:23:27.081Z,102185.95
2023-04-09T01:26:33.786Z,102180.26
2023-04-09T01:29:03.402Z,102176.23
2023-04-09T01:31:34.374Z,102176.66
2023-04-09T01:34:03.552Z,102173.03
2023-04-09T01:36:33.646Z,102177.51
2023-04-09T01:39:04.789Z,102169.86
2023-04-09T01:41:35.520Z,102177.21
2023-04-09T01:44:05.193Z,102171.95
2023-04-09T01:46:34.744Z,102180.48
2023-04-09T01:49:03.511Z,102180.48
2023-04-09T01:51:32.956Z,102182.55
2023-04-09T01:54:01.913Z,102187.77
2023-04-09T01:56:29.893Z,102186.99
2023-04-09T01:58:57.793Z,102189.37
2023-04-09T02:01:40.040Z,102189.37
2023-04-09T02:04:15.729Z,102188.53
2023-04-09T02:07:02.496Z,102186.86
2023-04-09T02:09:33.052Z,102188.53
2023-04-09T02:12:04.914Z,102190.20
2023-04-09T02:14:37.287Z,102194.71
2023-04-09T02:17:05.789Z,102190.30
2023-04-09T02:19:47.159Z,102196.90
2023-04-09T02:22:16.626Z,102188.59
2023-04-09T02:24:44.661Z,102189.12
2023-04-09T02:27:12.509Z,102183.88
2023-04-09T02:29:43.414Z,102192.87
2023-04-09T02:32:11.278Z,102183.59
2023-04-09T02:34:39.133Z,102186.04
2023-04-09T02:37:06.989Z,102185.26
2023-04-09T02:39:34.910Z,102188.92
2023-04-09T02:42:03.518Z,102185.36
2023-04-09T02:44:31.336Z,102194.28
2023-04-09T02:46:59.302Z,102197.55
2023-04-09T02:49:27.299Z,102197.23
2023-04-09T02:51:55.252Z,102195.79
2023-04-09T02:54:23.108Z,102195.36
2023-04-09T02:56:51.026Z,102196.28
2023-04-09T02:59:18.941Z,102196.37
2023-04-09T03:01:46.945Z,102192.74
2023-04-09T03:04:14.949Z,102187.16
2023-04-09T03:06:43.054Z,102183.88
2023-04-09T03:09:11.012Z,102182.71
2023-04-09T03:11:38.958Z,102179.08
2023-04-09T03:14:07.114Z,102177.09
2023-04-09T03:16:35.059Z,102180.74
2023-04-09T03:19:02.943Z,102186.08
2023-04-09T03:21:30.872Z,102182.87
2023-04-09T03:23:58.841Z,102182.48
2023-04-09T03:26:26.658Z,102171.98
2023-04-09T03:28:54.862Z,102165.12
2023-04-09T03:31:23.012Z,102171.20
2023-04-09T03:33:50.848Z,102167.96
2023-04-09T03:36:18.834Z,102171.98
2023-04-09T03:38:46.723Z,102172.73
2023-04-09T03:41:14.627Z,102174.73
2023-04-09T03:43:42.599Z,102171.49
2023-04-09T03:46:17.425Z,102169.43
2023-04-09T03:48:46.109Z,102177.15
2023-04-09T03:51:15.043Z,102170.25
2023-04-09T03:53:43.644Z,102169.86
2023-04-09T03:56:11.923Z,102173.13
2023-04-09T03:58:40.328Z,102169.89
2023-04-09T04:01:08.247Z,102173.98
2023-04-09T04:03:36.377Z,102173.19
2023-04-09T04:06:05.280Z,102167.50
2023-04-09T04:08:33.270Z,102172.02
2023-04-09T04:11:07.159Z,102171.20
2023-04-09T04:13:35.068Z,102169.95
2023-04-09T04:16:02.978Z,102173.62
2023-04-09T04:18:30.876Z,102169.95
2023-04-09T04:20:58.773Z,102176.49
2023-04-09T04:23:26.770Z,102175.32
2023-04-09T04:25:54.730Z,102178.13
2023-04-09T04:28:22.570Z,102179.37
2023-04-09T04:30:50.436Z,102176.13
2023-04-09T04:33:18.257Z,102180.62
2023-04-09T04:35:46.176Z,102181.46
2023-04-09T04:38:14.002Z,102174.96
2023-04-09T04:40:41.866Z,102181.46
2023-04-09T04:43:09.741Z,102180.26
2023-04-09T04:45:37.647Z,102183.49
2023-04-09T04:48:05.788Z,102189.97
2023-04-09T04:50:34.053Z,102181.86
2023-04-09T04:53:02.026Z,102187.16
2023-04-09T04:55:30.061Z,102186.80
2023-04-09T04:57:57.948Z,102192.02
2023-04-09T05:00:25.917Z,102193.30
2023-04-09T05:02:53.911Z,102201.02
2023-04-09T05:05:21.978Z,102197.78
2023-04-09T05:07:49.857Z,102204.75
2023-04-09T05:10:17.810Z,102202.72
2023-04-09T05:12:45.713Z,102199.94
2023-04-09T05:15:14.208Z,102204.42
2023-04-09T05:17:45.575Z,102218.64
2023-04-09T05:20:13.853Z,102217.96
2023-04-09T05:22:41.789Z,102219.30
2023-04-09T05:25:09.995Z,102224.53
2023-04-09T05:27:37.863Z,102228.55
2023-04-09T05:30:06.042Z,102226.55
2023-04-09T05:32:34.088Z,102221.30
2023-04-09T05:35:02.114Z,102225.74
2023-04-09T05:37:30.006Z,102222.14
2023-04-09T05:39:58.497Z,102220.09
2023-04-09T05:42:26.394Z,102218.45
2023-04-09T05:44:54.267Z,102227.73
2023-04-09T05:47:22.198Z,102224.47
2023-04-09T05:49:50.020Z,102219.53
2023-04-09T05:52:21.231Z,102221.09
2023-04-09T05:54:49.092Z,102225.94
2023-04-09T05:57:17.249Z,102222.73
2023-04-09T05:59:45.202Z,102222.73
2023-04-09T06:02:13.096Z,102214.20
2023-04-09T06:04:41.066Z,102209.72
2023-04-09T06:07:09.046Z,102214.95
2023-04-09T06:09:36.954Z,102213.28
2023-04-09T06:12:05.504Z,102213.64
2023-04-09T06:14:34.500Z,102218.02
2023-04-09T06:17:02.431Z,102219.59
2023-04-09T06:19:30.405Z,102217.92
2023-04-09T06:21:58.500Z,102216.26
2023-04-09T06:24:26.488Z,102216.23
2023-04-09T06:26:54.479Z,102210.50
2023-04-09T06:29:24.278Z,102220.15
2023-04-09T06:31:52.434Z,102212.82
2023-04-09T06:34:20.297Z,102214.43
2023-04-09T06:36:48.369Z,102215.18
2023-04-09T06:39:16.302Z,102211.52
2023-04-09T06:41:44.223Z,102218.35
2023-04-09T06:44:12.097Z,102217.47
2023-04-09T06:46:40.104Z,102218.25
2023-04-09T06:49:08.045Z,102211.26
2023-04-09T06:51:35.988Z,102213.61
2023-04-09T06:54:03.930Z,102215.18
2023-04-09T06:56:32.065Z,102220.84
2023-04-09T06:58:59.940Z,102218.84
2023-04-09T07:01:28.193Z,102220.09
2023-04-09T07:03:56.388Z,102222.86
2023-04-09T07:06:24.658Z,102217.50
2023-04-09T07:08:52.794Z,102217.04
2023-04-09T07:11:20.898Z,102215.31
2023-04-09T07:13:48.786Z,102215.27
2023-04-09T07:16:16.733Z,102220.90
2023-04-09T07:18:44.668Z,102217.96
2023-04-09T07:21:12.597Z,102217.47
2023-04-09T07:23:40.503Z,102223.84
2023-04-09T07:26:08.722Z,102216.84
2023-04-09T07:28:36.782Z,102218.35
2023-04-09T07:31:05.143Z,102219.49
2023-04-09T07:33:33.132Z,102215.70
2023-04-09T07:36:01.102Z,102212.30
2023-04-09T07:38:33.346Z,102209.36
2023-04-09T07:41:01.268Z,102208.80
2023-04-09T07:43:29.198Z,102208.31
2023-04-09T07:45:57.185Z,102207.79
2023-04-09T07:48:25.215Z,102206.87
2023-04-09T07:50:53.225Z,102213.67
2023-04-09T07:53:21.195Z,102204.98
2023-04-09T07:55:49.122Z,102208.97
2023-04-09T07:58:17.265Z,102206.77
2023-04-09T08:00:45.148Z,102207.82
2023-04-09T08:03:13.399Z,102206.41
2023-04-09T08:05:41.687Z,102201.84
2023-04-09T08:08:09.622Z,102202.03
2023-04-09T08:10:37.523Z,102203.11
2023-04-09T08:13:05.407Z,102203.05
2023-04-09T08:15:34.002Z,102210.66
2023-04-09T08:18:04.310Z,102206.41
2023-04-09T08:20:34.322Z,102215.11
2023-04-09T08:23:02.237Z,102211.65
2023-04-09T08:25:30.165Z,102209.88
2023-04-09T08:27:58.288Z,102212.20
2023-04-09T08:30:26.253Z,102216.65
2023-04-09T08:32:54.600Z,102215.34
2023-04-09T08:35:22.688Z,102220.45
2023-04-09T08:37:50.598Z,102215.80
2023-04-09T08:40:18.746Z,102222.60
2023-04-09T08:42:49.533Z,102224.62
2023-04-09T08:45:18.432Z,102221.42
2023-04-09T08:47:49.511Z,102231.95
2023-04-09T08:50:17.857Z,102222.18
2023-04-09T08:52:49.606Z,102221.00
2023-04-09T08:55:17.739Z,102225.91
2023-04-09T08:57:45.863Z,102231.17
2023-04-09T09:00:14.335Z,102225.12
2023-04-09T09:03:02.932Z,102232.77
2023-04-09T09:05:45.412Z,102236.34
2023-04-09T09:08:15.682Z,102236.76
2023-04-09T09:10:46.022Z,102234.66
2023-04-09T09:13:25.676Z,102237.74
2023-04-09T09:15:58.577Z,102236.47
2023-04-09T09:18:40.538Z,102241.27
2023-04-09T09:21:16.981Z,102242.09
2023-04-09T09:23:45.794Z,102237.74
2023-04-09T09:26:25.992Z,102238.56
2023-04-09T09:28:55.725Z,102243.01
2023-04-09T09:31:24.861Z,102237.45
2023-04-09T09:33:53.390Z,102241.86
2023-04-09T09:36:35.419Z,102244.34
2023-04-09T09:39:11.366Z,102232.84
2023-04-09T09:41:39.988Z,102221.75
2023-04-09T09:44:09.154Z,102219.16
2023-04-09T09:46:43.620Z,102225.12
2023-04-09T09:49:11.645Z,102228.42
2023-04-09T09:51:42.107Z,102226.76
2023-04-09T09:54:12.016Z,102228.39
2023-04-09T09:56:40.900Z,102224.99
2023-04-09T09:59:23.146Z,102224.92
2023-04-09T10:02:19.941Z,102229.20
2023-04-09T10:04:50.342Z,102230.16
2023-04-09T10:07:18.776Z,102230.55
2023-04-09T10:09:54.211Z,102230.41
2023-04-09T10:12:26.874Z,102228.72
2023-04-09T10:14:57.579Z,102226.88
2023-04-09T10:17:25.494Z,102221.69
2023-04-09T10:20:06.854Z,102227.18
2023-04-09T10:22:36.211Z,102216.87
2023-04-09T10:25:05.939Z,102217.34
2023-04-09T10:27:33.988Z,102223.09
2023-04-09T10:30:03.140Z,102218.12
2023-04-09T10:32:37.458Z,102209.78
2023-04-09T10:35:05.743Z,102215.41
2023-04-09T10:37:33.815Z,102211.48
2023-04-09T10:40:02.068Z,102213.70
2023-04-09T10:42:44.645Z,102213.67
2023-04-09T10:45:18.876Z,102220.57
2023-04-09T10:47:52.847Z,102218.12
2023-04-09T10:50:23.973Z,102211.81
2023-04-09T10:53:01.773Z,102207.43
2023-04-09T10:55:43.199Z,102205.47
2023-04-09T10:58:13.934Z,102208.67
2023-04-09T11:00:47.068Z,102207.27
2023-04-09T11:03:22.402Z,102189.94
2023-04-09T11:05:57.988Z,102191.21
2023-04-09T11:08:30.151Z,102181.98
2023-04-09T11:10:59.785Z,102181.98
2023-04-09T11:13:28.580Z,102181.40
2023-04-09T11:15:57.640Z,102183.23
2023-04-09T11:18:30.778Z,102183.36
2023-04-09T11:21:00.821Z,102179.02
2023-04-09T11:23:29.740Z,102172.47
2023-04-09T11:25:57.830Z,102172.47
2023-04-09T11:28:26.156Z,102173.62
2023-04-09T11:30:54.590Z,102169.20
2023-04-09T11:33:22.754Z,102158.70
2023-04-09T11:35:50.735Z,102166.81
2023-04-09T11:38:19.326Z,102161.78
2023-04-09T11:40:50.050Z,102168.58
2023-04-09T11:43:18.921Z,102173.95
2023-04-09T11:45:49.397Z,102166.06
2023-04-09T11:48:19.592Z,102160.21
2023-04-09T11:50:48.707Z,102164.72
2023-04-09T11:53:21.017Z,102165.08
2023-04-09T11:55:53.818Z,102168.62
2023-04-09T11:58:26.846Z,102162.20
2023-04-09T12:01:00.468Z,102165.08
2023-04-09T12:03:35.669Z,102164.79
2023-04-09T12:06:04.997Z,102166.69
2023-04-09T12:08:36.349Z,102158.67
2023-04-09T12:11:16.836Z,102163.31
2023-04-09T12:13:45.916Z,102154.20
2023-04-09T12:16:15.142Z,102151.31
2023-04-09T12:18:43.240Z,102145.27
2023-04-09T12:21:11.275Z,102144.12
2023-04-09T12:23:39.278Z,102141.77
2023-04-09T12:26:07.228Z,102146.54
2023-04-09T12:28:35.082Z,102137.74
2023-04-09T12:31:04.655Z,102145.59
2023-04-09T12:33:33.570Z,102146.25
2023-04-09T12:36:01.511Z,102146.25
2023-04-09T12:38:29.388Z,102133.76
2023-04-09T12:40:57.269Z,102138.73
2023-04-09T12:43:25.285Z,102137.62
2023-04-09T12:45:54.400Z,102138.40
2023-04-09T12:48:22.316Z,102140.00
2023-04-09T12:50:50.306Z,102132.02
2023-04-09T12:53:18.229Z,102130.26
2023-04-09T12:55:46.246Z,102138.40
2023-04-09T12:58:14.270Z,102125.94
2023-04-09T13:00:42.405Z,102119.53
2023-04-09T13:03:10.480Z,102124.50
2023-04-09T13:05:38.578Z,102128.98
2023-04-09T13:08:06.485Z,102124.96
2023-04-09T13:10:34.839Z,102118.91
2023-04-09T13:13:02.792Z,102115.57
2023-04-09T13:15:30.760Z,102120.51
2023-04-09T13:17:58.801Z,102110.77
2023-04-09T13:20:26.851Z,102113.32
2023-04-09T13:22:54.798Z,102109.49
2023-04-09T13:25:22.779Z,102106.77
2023-04-09T13:27:50.665Z,102106.94
2023-04-09T13:30:18.598Z,102096.41
2023-04-09T13:32:47.281Z,102099.42
2023-04-09T13:35:15.378Z,102101.19
2023-04-09T13:37:43.657Z,102093.20
2023-04-09T13:40:11.993Z,102086.80
2023-04-09T13:42:39.878Z,102087.62
2023-04-09T13:45:08.383Z,102082.19
2023-04-09T13:47:36.471Z,102078.98
2023-04-09T13:50:04.756Z,102082.48
2023-04-09T13:52:33.501Z,102082.68
2023-04-09T13:55:01.522Z,102074.50
2023-04-09T13:57:29.534Z,102078.16
2023-04-09T13:59:57.472Z,102074.50
2023-04-09T14:02:25.970Z,102075.29
2023-04-09T14:04:54.032Z,102076.56
2023-04-09T14:07:22.382Z,102070.84
2023-04-09T14:09:52.455Z,102072.61
2023-04-09T14:12:20.441Z,102075.48
2023-04-09T14:14:48.360Z,102061.59
2023-04-09T14:17:16.393Z,102067.47
2023-04-09T14:19:44.306Z,102060.31
2023-04-09T14:22:12.935Z,102056.98
2023-04-09T14:24:43.768Z,102059.98
2023-04-09T14:27:11.712Z,102064.79
2023-04-09T14:29:39.588Z,102059.66
2023-04-09T14:32:07.590Z,102063.19
2023-04-09T14:34:35.713Z,102053.73
2023-04-09T14:37:04.000Z,102058.38
2023-04-09T14:39:32.298Z,102058.52
2023-04-09T14:42:00.215Z,102048.48
2023-04-09T14:44:28.499Z,102040.82
2023-04-09T14:46:57.420Z,102040.33
2023-04-09T14:49:25.625Z,102041.93
2023-04-09T14:51:53.737Z,102050.08
2023-04-09T14:54:21.692Z,102037.62
2023-04-09T14:56:49.709Z,102036.02
2023-04-09T14:59:17.756Z,102040.49
2023-04-09T15:01:45.809Z,102036.51
2023-04-09T15:04:13.845Z,102035.88
2023-04-09T15:06:42.208Z,102031.57
2023-04-09T15:09:10.405Z,102034.45
2023-04-09T15:11:38.342Z,102030.59
2023-04-09T15:14:06.223Z,102024.70
2023-04-09T15:16:35.409Z,102022.12
2023-04-09T15:19:04.086Z,102026.89
2023-04-09T15:21:33.007Z,102020.68
2023-04-09T15:24:01.588Z,102019.41
2023-04-09T15:26:29.623Z,102023.85
2023-04-09T15:29:04.867Z,102016.03
2023-04-09T15:31:34.242Z,102014.76
2023-04-09T15:34:02.327Z,102014.27
2023-04-09T15:36:31.318Z,102019.24
2023-04-09T15:38:59.750Z,102008.02
2023-04-09T15:41:28.197Z,102010.73
2023-04-09T15:43:56.177Z,102015.84
2023-04-09T15:46:24.332Z,102015.97
2023-04-09T15:48:52.753Z,102006.42
2023-04-09T15:51:22.068Z,102014.20
2023-04-09T15:53:50.081Z,102016.75
2023-04-09T15:56:18.265Z,102011.29
2023-04-09T15:58:46.230Z,102017.21
2023-04-09T16:01:14.418Z,102015.45
2023-04-09T16:03:42.764Z,102012.90
2023-04-09T16:06:14.453Z,102007.44
2023-04-09T16:08:42.550Z,102009.85
2023-04-09T16:11:10.916Z,102004.39
2023-04-09T16:13:38.882Z,102005.51
2023-04-09T16:16:08.227Z,101999.59
2023-04-09T16:18:36.836Z,102002.76
2023-04-09T16:21:05.692Z,102005.63
2023-04-09T16:23:34.421Z,102008.35
2023-04-09T16:26:02.420Z,102009.95
2023-04-09T16:28:30.372Z,101997.62
2023-04-09T16:30:58.407Z,102008.16
2023-04-09T16:33:26.330Z,102002.73
2023-04-09T16:35:54.343Z,102003.18
2023-04-09T16:38:22.424Z,102005.27
2023-04-09T16:40:50.373Z,102004.16
2023-04-09T16:43:18.348Z,101998.41
2023-04-09T16:45:46.307Z,101994.26
2023-04-09T16:48:14.739Z,102008.35
2023-04-09T16:50:42.870Z,102004.03
2023-04-09T16:53:10.930Z,102002.63
2023-04-09T16:55:38.962Z,101994.32
2023-04-09T16:58:06.920Z,102004.13
2023-04-09T17:00:36.769Z,101997.40
2023-04-09T17:03:05.255Z,102008.28
2023-04-09T17:05:33.356Z,102001.77
2023-04-09T17:08:01.528Z,102005.60
2023-04-09T17:10:29.494Z,101998.93
2023-04-09T17:12:57.672Z,101997.49
2023-04-09T17:15:26.507Z,101991.61
2023-04-09T17:17:54.974Z,101988.73
2023-04-09T17:20:23.906Z,101994.35
2023-04-09T17:22:51.843Z,101988.44
2023-04-09T17:25:20.491Z,101994.35
2023-04-09T17:27:48.602Z,101988.14
2023-04-09T17:30:16.886Z,101989.74
2023-04-09T17:32:45.522Z,101994.19
2023-04-09T17:35:13.568Z,101994.88
2023-04-09T17:37:41.645Z,101999.65
2023-04-09T17:40:10.319Z,102001.22
2023-04-09T17:42:38.231Z,102000.27
2023-04-09T17:45:07.013Z,102007.92
2023-04-09T17:47:35.035Z,102008.22
2023-04-09T17:50:03.144Z,102001.22
2023-04-09T17:52:37.833Z,102005.96
2023-04-09T17:55:13.683Z,102012.30
2023-04-09T17:57:42.991Z,102018.36
2023-04-09T18:00:12.433Z,102018.65
2023-04-09T18:02:40.732Z,102026.30
2023-04-09T18:05:09.405Z,102023.23
2023-04-09T18:07:37.378Z,102031.83
2023-04-09T18:10:06.041Z,102037.39
2023-04-09T18:12:34.071Z,102044.98
2023-04-09T18:15:02.078Z,102047.33
2023-04-09T18:17:30.124Z,102043.02
2023-04-09T18:19:59.504Z,102046.97
2023-04-09T18:22:28.730Z,102055.38
2023-04-09T18:24:57.884Z,102051.52
2023-04-09T18:27:25.867Z,102056.23
2023-04-09T18:29:53.792Z,102058.12
2023-04-09T18:32:21.629Z,102067.80
2023-04-09T18:34:49.875Z,102070.45
2023-04-09T18:37:17.843Z,102078.49
2023-04-09T18:39:46.271Z,102082.77
2023-04-09T18:42:15.072Z,102089.55
2023-04-09T18:44:43.568Z,102090.13
2023-04-09T18:47:12.464Z,102089.94
2023-04-09T18:49:40.437Z,102101.19
2023-04-09T18:52:10.352Z,102099.39
2023-04-09T18:54:38.613Z,102102.04
2023-04-09T18:57:06.962Z,102108.31
2023-04-09T18:59:36.166Z,102107.63
2023-04-09T19:02:06.446Z,102118.84
2023-04-09T19:04:40.699Z,102112.44
2023-04-09T19:07:09.093Z,102120.35
2023-04-09T19:09:38.571Z,102122.54
2023-04-09T19:12:06.742Z,102125.97
2023-04-09T19:14:34.721Z,102124.47
2023-04-09T19:17:03.752Z,102127.94
2023-04-09T19:19:31.656Z,102127.70
2023-04-09T19:22:00.213Z,102126.66
2023-04-09T19:24:28.169Z,102125.16
2023-04-09T19:26:57.941Z,102127.34
2023-04-09T19:29:25.984Z,102134.45
2023-04-09T19:31:53.930Z,102139.45
2023-04-09T19:34:21.900Z,102135.55
2023-04-09T19:36:49.778Z,102141.38
2023-04-09T19:39:17.747Z,102141.93
2023-04-09T19:41:45.692Z,102139.22
2023-04-09T19:44:13.574Z,102141.34
2023-04-09T19:46:41.594Z,102139.09
2023-04-09T19:49:09.483Z,102139.18
2023-04-09T19:51:37.394Z,102141.80
2023-04-09T19:54:05.487Z,102142.81
2023-04-09T19:56:34.195Z,102140.82
2023-04-09T19:59:02.157Z,102147.45
2023-04-09T20:01:30.234Z,102143.56
2023-04-09T20:03:58.746Z,102147.29
2023-04-09T20:06:27.410Z,102146.28
2023-04-09T20:08:55.943Z,102140.30
2023-04-09T20:11:23.810Z,102141.63
2023-04-09T20:13:51.806Z,102138.89
2023-04-09T20:16:20.083Z,102149.98
2023-04-09T20:18:48.694Z,102139.09
2023-04-09T20:21:16.880Z,102142.84
2023-04-09T20:23:46.493Z,102141.41
2023-04-09T20:26:14.952Z,102143.56
2023-04-09T20:28:43.008Z,102149.71
2023-04-09T20:31:10.975Z,102147.78
2023-04-09T20:33:38.908Z,102147.85
2023-04-09T20:36:15.900Z,102142.23
2023-04-09T20:38:44.053Z,102150.46
2023-04-09T20:41:11.991Z,102144.48
2023-04-09T20:43:40.064Z,102144.97
2023-04-09T20:46:08.095Z,102156.02
2023-04-09T20:48:35.948Z,102145.52
2023-04-09T20:51:10.359Z,102149.29
2023-04-09T20:53:39.351Z,102150.53
2023-04-09T20:56:07.590Z,102157.10
2023-04-09T20:58:35.455Z,102151.41
2023-04-09T21:01:08.642Z,102153.54
2023-04-09T21:03:41.364Z,102146.67
2023-04-09T21:06:10.009Z,102149.98
2023-04-09T21:08:38.689Z,102142.75
2023-04-09T21:11:06.951Z,102142.84
2023-04-09T21:13:46.829Z,102145.33
2023-04-09T21:16:22.355Z,102142.59
2023-04-09T21:18:55.408Z,102143.01
2023-04-09T21:21:23.720Z,102140.59
2023-04-09T21:23:51.684Z,102142.29
2023-04-09T21:26:19.661Z,102146.38
2023-04-09T21:28:49.434Z,102143.99
2023-04-09T21:31:17.694Z,102140.39
2023-04-09T21:33:45.699Z,102142.45
2023-04-09T21:36:13.791Z,102142.09
2023-04-09T21:38:41.708Z,102144.68
2023-04-09T21:41:09.932Z,102137.09
2023-04-09T21:43:39.782Z,102146.87
2023-04-09T21:46:08.061Z,102140.88
2023-04-09T21:48:36.039Z,102143.01
2023-04-09T21:51:04.057Z,102145.43
2023-04-09T21:53:32.713Z,102143.83
2023-04-09T21:56:01.814Z,102137.38
2023-04-09T21:58:32.288Z,102130.52
2023-04-09T22:01:00.307Z,102129.38
2023-04-09T22:03:29.084Z,102129.44
2023-04-09T22:05:57.145Z,102129.54
2023-04-09T22:08:25.742Z,102138.95
2023-04-09T22:10:53.690Z,102138.23
2023-04-09T22:13:21.785Z,102129.38
2023-04-09T22:15:49.840Z,102131.86
2023-04-09T22:18:17.753Z,102142.55
2023-04-09T22:20:45.624Z,102142.16
2023-04-09T22:23:13.635Z,102150.37
2023-04-09T22:25:41.481Z,102154.09
2023-04-09T22:28:09.480Z,102148.83
2023-04-09T22:30:37.329Z,102152.91
2023-04-09T22:33:05.375Z,102156.22
2023-04-09T22:35:34.246Z,102151.38
2023-04-09T22:38:02.346Z,102151.02
2023-04-09T22:40:30.327Z,102143.27
2023-04-09T22:42:58.244Z,102152.27
2023-04-09T22:45:29.154Z,102151.09
2023-04-09T22:47:58.264Z,102139.74
2023-04-09T22:50:29.873Z,102136.53
2023-04-09T22:52:57.923Z,102138.59
2023-04-09T22:55:25.793Z,102143.92
2023-04-09T22:57:53.712Z,102144.41
2023-04-09T23:00:21.982Z,102145.00
2023-04-09T23:02:52.074Z,102142.29
2023-04-09T23:05:20.099Z,102144.84
2023-04-09T23:07:48.228Z,102142.88
2023-04-09T23:10:18.586Z,102146.57
2023-04-09T23:12:46.554Z,102147.03
2023-04-09T23:15:14.652Z,102141.31
2023-04-09T23:17:43.022Z,102147.49
2023-04-09T23:20:12.649Z,102149.62
2023-04-09T23:22:40.437Z,102145.66
2023-04-09T23:25:08.584Z,102141.70
2023-04-09T23:27:36.572Z,102144.61
2023-04-09T23:30:04.585Z,102140.98
2023-04-09T23:32:32.533Z,102134.51
2023-04-09T23:35:02.472Z,102130.48
2023-04-09T23:37:30.353Z,102128.06
2023-04-09T23:39:58.216Z,102119.53
2023-04-09T23:42:27.503Z,102117.93
2023-04-09T23:44:55.412Z,102117.99
2023-04-09T23:47:23.504Z,102112.44
2023-04-09T23:49:51.339Z,102107.59
2023-04-09T23:52:19.193Z,102110.05
2023-04-09T23:54:53.113Z,102114.13
2023-04-09T23:57:21.072Z,102118.68
2023-04-09T23:59:49.198Z,102123.91
